Time;durP1;ratioP1;P1;durP2;ratioP2;P2;SDS_P1;SDS_P2;PMS_P1;PMS_P2;Temp;Humidity;BMP_temperature;BMP_pressure;BME280_temperature;BME280_humidity;BME280_pressure;Samples;Min_cycle;Max_cycle;Signal;HPM_P1;HPM_P2
2021/05/19 00:00:09;;;;;;;2.35;0.45;;;;;;;19.04;60.00;100075.27;1741082;80;21091;-48
2021/05/19 00:02:36;;;;;;;0.53;0.37;;;;;;;19.02;59.94;100065.80;1768847;80;21104;-49
2021/05/19 00:05:04;;;;;;;0.45;0.45;;;;;;;19.02;59.88;100070.58;1785098;79;21047;-49
2021/05/19 00:07:31;;;;;;;0.62;0.30;;;;;;;19.01;59.83;100071.54;1778573;80;21551;-49
2021/05/19 00:09:58;;;;;;;0.80;0.30;;;;;;;18.98;59.78;100072.23;1792473;79;21099;-50
2021/05/19 00:12:25;;;;;;;1.87;0.50;;;;;;;18.94;59.82;100068.92;1767198;80;21053;-50
2021/05/19 00:14:52;;;;;;;1.35;0.30;;;;;;;18.92;59.94;100078.73;1741953;81;21556;-50
2021/05/19 00:17:18;;;;;;;0.30;0.25;;;;;;;18.90;59.83;100070.58;1766055;79;21083;-50
2021/05/19 00:19:46;;;;;;;0.30;0.30;;;;;;;18.84;59.88;100079.72;1758090;79;21095;-50
2021/05/19 00:22:13;;;;;;;0.20;0.20;;;;;;;18.80;60.10;100076.91;1770958;79;21044;-50
2021/05/19 00:24:41;;;;;;;0.68;0.40;;;;;;;18.81;60.10;100080.40;1781660;79;21643;-50
2021/05/19 00:27:08;;;;;;;1.30;0.37;;;;;;;18.78;59.94;100081.44;1777737;79;21091;-49
2021/05/19 00:29:35;;;;;;;0.40;0.40;;;;;;;18.76;60.00;100089.92;1772042;79;21080;-49
2021/05/19 00:32:01;;;;;;;0.25;0.25;;;;;;;18.75;60.06;100096.62;1759741;79;21515;-49
2021/05/19 00:34:28;;;;;;;0.30;0.30;;;;;;;18.72;60.09;100089.75;1782854;79;21048;-49
2021/05/19 00:36:56;;;;;;;1.45;0.60;;;;;;;18.72;60.15;100102.93;1768114;80;21076;-50
2021/05/19 00:39:23;;;;;;;1.07;0.40;;;;;;;18.69;60.19;100092.61;1773983;79;21020;-49
2021/05/19 00:41:49;;;;;;;0.20;0.20;;;;;;;18.68;60.17;100094.84;1765015;79;21061;-49
2021/05/19 00:44:17;;;;;;;0.75;0.30;;;;;;;18.67;60.25;100095.31;1781359;79;21156;-49
2021/05/19 00:46:45;;;;;;;0.65;0.40;;;;;;;18.66;60.32;100090.16;1770898;79;21515;-48
2021/05/19 00:49:13;;;;;;;0.60;0.40;;;;;;;18.66;60.38;100092.79;1792814;79;21594;-49
2021/05/19 00:51:41;;;;;;;0.42;0.40;;;;;;;18.68;60.36;100094.84;1776419;79;21020;-49
2021/05/19 00:54:07;;;;;;;0.50;0.50;;;;;;;18.68;60.36;100104.93;1788008;79;21060;-49
2021/05/19 00:56:34;;;;;;;0.30;0.30;;;;;;;18.66;60.46;100096.74;1781706;79;21582;-49
2021/05/19 00:59:02;;;;;;;0.30;0.30;;;;;;;18.69;60.48;100103.14;1789550;79;21051;-49
2021/05/19 01:01:34;;;;;;;0.95;0.40;;;;;;;18.68;60.36;100104.93;1770722;80;21536;-49
2021/05/19 01:04:04;;;;;;;0.70;0.30;;;;;;;18.69;60.45;100108.41;1767674;79;21040;-49
2021/05/19 01:06:46;;;;;;;0.40;0.40;;;;;;;18.71;60.38;100117.06;1772783;79;21586;-49
2021/05/19 01:11:50;;;;;;;0.40;0.40;;;;;;;18.73;60.31;100112.54;1768107;79;21056;-49
2021/05/19 01:14:18;;;;;;;0.57;0.53;;;;;;;18.75;60.27;100118.56;1775739;79;21556;-49
2021/05/19 01:16:45;;;;;;;0.42;0.37;;;;;;;18.78;60.04;100124.08;1770448;79;21112;-49
2021/05/19 01:19:13;;;;;;;0.62;0.60;;;;;;;18.72;60.18;100124.48;1772259;79;21572;-49
2021/05/19 01:21:43;;;;;;;0.53;0.42;;;;;;;18.71;60.21;100117.06;1783705;79;21052;-49
2021/05/19 01:24:11;;;;;;;0.42;0.42;;;;;;;18.71;60.08;100121.02;1769726;79;21076;-49
2021/05/19 01:26:37;;;;;;;1.47;0.40;;;;;;;18.71;60.19;100121.48;1770548;79;21047;-49
2021/05/19 01:29:06;;;;;;;1.57;0.75;;;;;;;18.72;60.19;100125.80;1782107;79;21072;-49
2021/05/19 01:31:34;;;;;;;0.57;0.50;;;;;;;18.74;60.06;100122.13;1780212;79;21057;-49
2021/05/19 01:34:02;;;;;;;1.07;0.40;;;;;;;18.78;59.92;100133.30;1784611;79;21087;-50
2021/05/19 01:36:28;;;;;;;1.00;0.50;;;;;;;18.75;59.78;100134.38;1767945;80;21427;-49
2021/05/19 01:38:56;;;;;;;1.35;0.42;;;;;;;18.73;59.79;100128.36;1776000;79;21025;-49
2021/05/19 01:41:24;;;;;;;0.93;0.60;;;;;;;18.73;59.78;100133.62;1768714;79;21114;-50
2021/05/19 01:43:51;;;;;;;1.20;0.42;;;;;;;18.73;59.69;100135.41;1786042;79;21540;-49
2021/05/19 01:46:21;;;;;;;0.90;0.70;;;;;;;18.69;59.70;100137.41;1789753;79;21016;-49
2021/05/19 01:48:56;;;;;;;0.30;0.30;;;;;;;18.67;59.78;100133.99;1786530;79;21258;-49
2021/05/19 01:51:22;;;;;;;0.30;0.30;;;;;;;18.68;59.81;100131.75;1781865;79;21001;-49
2021/05/19 01:53:50;;;;;;;0.95;0.40;;;;;;;18.70;59.80;100139.08;1766907;79;21047;-49
2021/05/19 01:56:17;;;;;;;0.90;0.57;;;;;;;18.70;59.80;100133.81;1751558;80;21053;-49
2021/05/19 01:58:45;;;;;;;0.30;0.30;;;;;;;18.69;59.65;100130.81;1718908;82;21554;-49
2021/05/19 02:01:13;;;;;;;0.60;0.45;;;;;;;18.67;59.78;100135.31;1663694;83;21107;-48
2021/05/19 02:03:40;;;;;;;0.60;0.50;;;;;;;18.65;59.72;100133.25;1710060;82;21041;-49
2021/05/19 02:06:09;;;;;;;0.50;0.50;;;;;;;18.66;59.71;100125.73;1652242;84;21115;-50
2021/05/19 02:08:36;;;;;;;0.78;0.60;;;;;;;18.66;59.77;100124.41;1687668;83;21650;-50
2021/05/19 02:11:03;;;;;;;1.05;0.50;;;;;;;18.64;59.80;100128.94;1707513;82;21134;-49
2021/05/19 02:13:33;;;;;;;0.42;0.42;;;;;;;18.63;59.88;100132.50;1702067;83;21626;-49
2021/05/19 02:16:02;;;;;;;0.55;0.50;;;;;;;18.62;59.80;100126.88;1710831;83;21628;-49
2021/05/19 02:18:29;;;;;;;0.57;0.40;;;;;;;18.60;59.77;100135.35;1676037;85;21095;-48
2021/05/19 02:21:00;;;;;;;1.17;0.72;;;;;;;18.58;59.77;100130.66;1660065;85;21132;-50
2021/05/19 02:23:27;;;;;;;1.20;0.50;;;;;;;18.57;59.79;100131.58;1707710;82;21074;-49
2021/05/19 02:25:54;;;;;;;0.57;0.50;;;;;;;18.55;59.81;100138.73;1663282;85;21635;-48
2021/05/19 02:28:21;;;;;;;0.93;0.60;;;;;;;18.55;59.78;100132.15;1660029;84;21108;-49
2021/05/19 02:30:49;;;;;;;0.50;0.50;;;;;;;18.55;59.65;100142.22;1689155;83;21076;-49
2021/05/19 02:33:20;;;;;;;0.68;0.60;;;;;;;18.54;59.72;100148.92;1676304;83;21087;-49
2021/05/19 02:35:47;;;;;;;0.50;0.50;;;;;;;18.50;59.72;100143.47;1705081;82;21064;-49
2021/05/19 02:38:15;;;;;;;0.50;0.40;;;;;;;18.51;59.81;100146.47;1713550;83;21096;-49
2021/05/19 02:40:42;;;;;;;0.53;0.42;;;;;;;18.52;59.81;100146.86;1654698;85;21742;-49
2021/05/19 02:43:09;;;;;;;0.75;0.40;;;;;;;18.52;59.82;100147.70;1646789;85;21077;-49
2021/05/19 02:45:38;;;;;;;0.42;0.42;;;;;;;18.53;59.91;100149.84;1646259;85;21572;-49
2021/05/19 02:48:05;;;;;;;1.32;0.40;;;;;;;18.53;59.83;100151.16;1666433;85;21126;-49
2021/05/19 02:50:32;;;;;;;0.60;0.40;;;;;;;18.52;59.89;100159.56;1652148;85;21071;-49
2021/05/19 02:52:58;;;;;;;1.20;0.40;;;;;;;18.50;59.85;100166.72;1652581;85;21101;-49
2021/05/19 02:55:25;;;;;;;1.10;0.60;;;;;;;18.51;59.85;100165.77;1681318;84;21568;-49
2021/05/19 02:57:52;;;;;;;0.57;0.40;;;;;;;18.51;59.82;100164.91;1676303;83;21151;-49
2021/05/19 03:00:19;;;;;;;3.65;0.70;;;;;;;18.52;59.75;100169.25;1709990;82;21091;-49
2021/05/19 03:02:47;;;;;;;0.40;0.37;;;;;;;18.52;59.82;100166.61;1704193;83;21048;-49
2021/05/19 03:05:13;;;;;;;0.40;0.40;;;;;;;18.53;59.60;100171.78;1776615;79;21030;-49
2021/05/19 03:07:40;;;;;;;0.35;0.35;;;;;;;18.54;59.58;100170.00;1768561;80;21098;-49
2021/05/19 03:10:09;;;;;;;0.80;0.40;;;;;;;18.55;59.58;100167.26;1773337;79;21044;-49
2021/05/19 03:12:36;;;;;;;0.37;0.37;;;;;;;18.55;59.47;100169.04;1766612;79;21067;-49
2021/05/19 03:15:07;;;;;;;0.62;0.50;;;;;;;18.53;59.53;100170.92;1768212;79;21075;-49
2021/05/19 03:17:34;;;;;;;0.50;0.50;;;;;;;18.53;59.40;100172.24;1768615;80;21001;-49
2021/05/19 03:20:01;;;;;;;0.40;0.40;;;;;;;18.54;59.34;100167.36;1782253;79;21120;-49
2021/05/19 03:22:28;;;;;;;0.40;0.40;;;;;;;18.53;59.38;100175.73;1776480;79;21539;-49
2021/05/19 03:24:54;;;;;;;0.30;0.30;;;;;;;18.53;59.27;100184.10;1781453;79;21079;-49
2021/05/19 03:27:21;;;;;;;0.68;0.50;;;;;;;18.53;59.34;100188.91;1781353;79;21080;-49
2021/05/19 03:29:48;;;;;;;0.40;0.40;;;;;;;18.55;59.47;100187.48;1778794;78;21096;-50
2021/05/19 03:32:15;;;;;;;0.40;0.40;;;;;;;18.54;59.51;100191.93;1778237;79;21582;-49
2021/05/19 03:34:42;;;;;;;0.30;0.30;;;;;;;18.54;59.57;100191.93;1727237;82;21036;-49
2021/05/19 03:37:08;;;;;;;0.40;0.40;;;;;;;18.56;59.57;100198.41;1749427;81;21084;-49
2021/05/19 03:39:35;;;;;;;1.10;0.30;;;;;;;18.55;59.60;100198.02;1686312;81;21562;-49
2021/05/19 03:42:04;;;;;;;0.40;0.40;;;;;;;18.55;59.60;100192.75;1750895;80;21591;-48
2021/05/19 03:44:31;;;;;;;0.40;0.40;;;;;;;18.55;59.67;100195.39;1717850;82;21056;-49
2021/05/19 03:46:58;;;;;;;0.50;0.47;;;;;;;18.53;59.81;100196.81;1730704;82;21056;-49
2021/05/19 03:49:27;;;;;;;0.90;0.40;;;;;;;18.54;59.94;100198.98;1725907;82;21730;-49
2021/05/19 03:51:53;;;;;;;0.53;0.40;;;;;;;18.53;59.91;100199.91;1785629;79;21037;-49
2021/05/19 03:54:21;;;;;;;0.40;0.40;;;;;;;18.55;60.02;100196.70;1768067;79;21567;-50
2021/05/19 03:56:50;;;;;;;1.07;0.37;;;;;;;18.55;59.99;100210.73;1777735;78;21071;-49
2021/05/19 03:59:17;;;;;;;0.50;0.50;;;;;;;18.60;59.81;100203.86;1767117;79;21100;-49
2021/05/19 04:01:43;;;;;;;1.62;0.50;;;;;;;18.60;59.85;100209.98;1703895;82;21073;-48
2021/05/19 04:04:11;;;;;;;0.60;0.60;;;;;;;18.64;59.68;100213.27;1702492;83;21077;-49
2021/05/19 04:06:37;;;;;;;1.12;0.60;;;;;;;18.63;59.63;100213.73;1770487;79;21017;-49
2021/05/19 04:09:06;;;;;;;1.90;0.80;;;;;;;18.64;59.65;100217.22;1757121;80;21583;-49
2021/05/19 04:11:33;;;;;;;0.88;0.88;;;;;;;18.63;59.75;100207.14;1709897;82;21530;-49
2021/05/19 04:14:00;;;;;;;1.25;0.70;;;;;;;18.65;59.76;100215.80;1784905;79;21101;-49
2021/05/19 04:16:26;;;;;;;0.85;0.70;;;;;;;18.67;59.80;100219.18;1771704;79;21583;-49
2021/05/19 04:18:54;;;;;;;1.65;0.80;;;;;;;18.69;59.81;100223.87;1763131;80;21072;-49
2021/05/19 04:21:21;;;;;;;1.77;1.00;;;;;;;18.72;60.00;100228.12;1768369;79;21107;-49
2021/05/19 04:23:48;;;;;;;1.67;1.00;;;;;;;18.75;59.86;100225.77;1777897;79;21076;-49
2021/05/19 04:26:16;;;;;;;0.80;0.80;;;;;;;18.79;59.82;100229.44;1796978;79;21063;-49
2021/05/19 04:28:47;;;;;;;1.57;0.85;;;;;;;18.84;59.85;100236.56;1773975;79;21027;-49
2021/05/19 04:31:13;;;;;;;2.30;1.07;;;;;;;18.91;59.90;100233.92;1787883;79;21052;-49
2021/05/19 04:33:41;;;;;;;2.35;1.10;;;;;;;18.96;59.71;100237.59;1761636;80;21072;-49
2021/05/19 04:36:08;;;;;;;1.27;1.17;;;;;;;19.01;59.58;100237.66;1785430;79;21072;-49
2021/05/19 04:38:36;;;;;;;1.30;1.20;;;;;;;19.06;59.54;100242.14;1787663;79;21056;-49
2021/05/19 04:41:04;;;;;;;2.27;1.60;;;;;;;19.10;59.36;100246.27;1774938;79;21045;-49
2021/05/19 04:43:31;;;;;;;1.77;1.20;;;;;;;19.12;59.33;100265.51;1756837;79;21132;-49
2021/05/19 04:45:59;;;;;;;1.87;1.70;;;;;;;19.14;59.25;100251.75;1762915;80;21096;-49
2021/05/19 04:48:27;;;;;;;1.45;1.35;;;;;;;19.19;59.25;100259.34;1769179;80;21084;-49
2021/05/19 04:50:54;;;;;;;1.80;1.50;;;;;;;19.24;59.07;100259.44;1769204;79;21033;-49
2021/05/19 04:53:21;;;;;;;1.35;1.27;;;;;;;19.28;58.92;100271.48;1776097;79;21032;-49
2021/05/19 04:55:47;;;;;;;1.45;1.35;;;;;;;19.30;59.09;100266.95;1727432;82;21611;-49
2021/05/19 04:58:14;;;;;;;2.77;1.70;;;;;;;19.34;58.97;100260.56;1736736;81;21036;-49
2021/05/19 05:00:41;;;;;;;1.60;1.50;;;;;;;19.40;58.95;100269.86;1787987;79;21031;-49
2021/05/19 05:03:11;;;;;;;2.20;1.65;;;;;;;19.44;58.79;100272.20;1774667;79;21071;-49
2021/05/19 05:05:38;;;;;;;1.90;1.50;;;;;;;19.52;58.69;100282.70;1772970;79;21080;-49
2021/05/19 05:08:05;;;;;;;1.60;1.50;;;;;;;19.57;58.52;100272.70;1757535;80;21068;-49
2021/05/19 05:10:32;;;;;;;1.60;1.45;;;;;;;19.62;58.53;100275.41;1775654;79;21058;-50
2021/05/19 05:12:59;;;;;;;2.12;1.32;;;;;;;19.70;58.40;100273.59;1769317;79;21068;-49
2021/05/19 05:15:26;;;;;;;1.60;1.42;;;;;;;19.80;58.21;100284.76;1775637;79;21056;-49
2021/05/19 05:17:53;;;;;;;1.50;1.40;;;;;;;19.91;58.02;100285.33;1775483;79;21590;-49
2021/05/19 05:20:21;;;;;;;1.75;1.65;;;;;;;20.01;57.54;100293.86;1742902;81;21079;-49
2021/05/19 05:22:48;;;;;;;1.47;1.37;;;;;;;20.09;57.26;100290.72;1765956;79;21055;-50
2021/05/19 05:25:18;;;;;;;1.40;1.30;;;;;;;20.14;57.18;100293.41;1784626;79;21279;-48
2021/05/19 05:27:48;;;;;;;1.55;1.25;;;;;;;20.17;56.68;100289.72;1780926;79;21043;-48
2021/05/19 05:30:17;;;;;;;1.42;1.22;;;;;;;20.18;56.44;100295.35;1768846;79;21069;-48
2021/05/19 05:32:44;;;;;;;1.65;1.50;;;;;;;20.16;56.14;100301.22;1761172;79;21057;-49
2021/05/19 05:35:11;;;;;;;1.50;1.40;;;;;;;20.14;56.27;100304.44;1786552;79;21049;-49
2021/05/19 05:37:38;;;;;;;2.02;1.30;;;;;;;20.12;56.04;100295.77;1782377;79;21012;-50
2021/05/19 05:40:06;;;;;;;1.40;1.30;;;;;;;20.09;56.04;100301.28;1711006;82;21515;-50
2021/05/19 05:42:33;;;;;;;1.80;1.70;;;;;;;20.08;56.17;100299.58;1768331;80;21063;-50
2021/05/19 05:45:04;;;;;;;1.40;1.30;;;;;;;20.09;56.17;100303.92;1779382;79;21033;-49
2021/05/19 05:47:32;;;;;;;2.22;1.20;;;;;;;20.12;56.19;100311.63;1780766;79;21084;-49
2021/05/19 05:50:02;;;;;;;1.55;1.45;;;;;;;20.18;56.12;100312.52;1775659;79;21606;-49
2021/05/19 05:52:30;;;;;;;1.15;1.00;;;;;;;20.28;56.08;100330.80;1774392;80;21055;-49
2021/05/19 05:54:57;;;;;;;1.55;1.30;;;;;;;20.46;55.81;100344.09;1735450;80;21038;-49
2021/05/19 05:57:23;;;;;;;1.42;1.32;;;;;;;20.61;55.16;100339.05;1733144;82;21531;-50
2021/05/19 05:59:50;;;;;;;1.47;1.30;;;;;;;20.70;54.98;100343.70;1709347;82;21069;-50
2021/05/19 06:02:17;;;;;;;1.50;1.40;;;;;;;20.75;54.82;100348.68;1744569;81;21564;-49
2021/05/19 06:04:43;;;;;;;1.72;1.62;;;;;;;20.79;54.55;100345.69;1800608;79;21064;-50
2021/05/19 06:07:11;;;;;;;1.50;1.40;;;;;;;20.81;54.51;100346.92;1769686;79;21345;-50
2021/05/19 06:09:38;;;;;;;3.77;1.50;;;;;;;20.85;54.30;100361.16;1761559;79;21595;-50
2021/05/19 06:12:07;;;;;;;2.08;1.82;;;;;;;20.89;54.08;100360.45;1771637;79;22339;-49
2021/05/19 06:14:35;;;;;;;4.50;1.70;;;;;;;20.90;53.99;100368.73;1766851;80;21594;-49
2021/05/19 06:17:03;;;;;;;1.98;1.87;;;;;;;20.88;54.00;100369.33;1770527;79;21079;-49
2021/05/19 06:19:30;;;;;;;1.60;1.50;;;;;;;20.83;53.91;100372.31;1771162;79;21059;-49
2021/05/19 06:21:57;;;;;;;2.75;1.90;;;;;;;20.78;54.00;100372.24;1757224;80;21079;-50
2021/05/19 06:24:24;;;;;;;1.70;1.60;;;;;;;20.73;54.22;100384.45;1752563;81;21562;-50
2021/05/19 06:26:51;;;;;;;1.80;1.70;;;;;;;20.73;54.31;100383.13;1756079;81;21088;-49
2021/05/19 06:29:17;;;;;;;1.62;1.52;;;;;;;20.70;54.15;100376.75;1770196;80;21060;-49
2021/05/19 06:31:45;;;;;;;2.10;1.92;;;;;;;20.67;53.94;100384.88;1783278;79;21063;-50
2021/05/19 06:34:12;;;;;;;1.90;1.80;;;;;;;20.63;54.06;100387.88;1745883;82;21015;-50
2021/05/19 06:36:42;;;;;;;1.65;1.55;;;;;;;20.61;54.19;100399.84;1717776;82;21070;-50
2021/05/19 06:39:07;;;;;;;1.60;1.50;;;;;;;20.60;54.07;100402.14;1737291;80;21612;-49
2021/05/19 06:41:34;;;;;;;2.45;1.47;;;;;;;20.61;54.04;100404.31;1731073;81;21079;-49
2021/05/19 06:44:01;;;;;;;2.67;1.62;;;;;;;20.60;53.68;100401.28;1708856;81;21118;-49
2021/05/19 06:46:28;;;;;;;1.70;1.60;;;;;;;20.59;53.73;100404.86;1719081;82;21081;-49
2021/05/19 06:49:02;;;;;;;2.37;1.47;;;;;;;20.57;53.79;100411.58;1769535;79;21052;-49
2021/05/19 06:51:23;;;;;;;3.35;1.30;;;;;;;20.56;53.96;100411.23;1771720;79;21059;-49
2021/05/19 06:53:50;;;;;;;2.37;1.62;;;;;;;20.55;53.65;100408.66;1761414;79;21076;-49
2021/05/19 06:56:18;;;;;;;2.90;1.37;;;;;;;20.54;53.69;100419.73;1785339;79;21036;-49
2021/05/19 06:58:45;;;;;;;2.42;1.72;;;;;;;20.52;53.95;100415.03;1741891;81;21579;-49
2021/05/19 07:01:11;;;;;;;2.60;1.45;;;;;;;20.51;53.79;100409.36;1740811;80;21037;-50
2021/05/19 07:03:38;;;;;;;1.57;1.30;;;;;;;20.50;53.85;100417.41;1755899;80;21154;-49
2021/05/19 07:06:05;;;;;;;1.60;1.42;;;;;;;20.48;53.95;100424.13;1771806;79;21108;-49
2021/05/19 07:08:34;;;;;;;1.92;1.52;;;;;;;20.46;54.06;100424.70;1731328;82;21096;-49
2021/05/19 07:11:00;;;;;;;7.03;1.65;;;;;;;20.48;54.01;100432.05;1718038;82;21068;-50
2021/05/19 07:13:28;;;;;;;1.42;1.32;;;;;;;20.46;53.94;100428.66;1770998;79;21075;-49
2021/05/19 07:15:56;;;;;;;1.50;1.40;;;;;;;20.44;53.78;100446.42;1770945;79;21087;-50
2021/05/19 07:18:23;;;;;;;3.65;1.77;;;;;;;20.41;53.59;100451.90;1771067;79;21626;-49
2021/05/19 07:20:50;;;;;;;1.45;1.35;;;;;;;20.40;53.51;100443.61;1776728;79;21024;-50
2021/05/19 07:23:17;;;;;;;1.10;1.10;;;;;;;20.39;53.65;100452.48;1773334;80;21043;-49
2021/05/19 07:25:44;;;;;;;1.10;1.00;;;;;;;20.36;53.77;100455.31;1790708;79;21080;-49
2021/05/19 07:28:11;;;;;;;1.42;1.32;;;;;;;20.36;53.71;100460.59;1770453;79;21194;-50
2021/05/19 07:30:42;;;;;;;1.17;1.07;;;;;;;20.35;53.77;100460.23;1782135;79;21111;-49
2021/05/19 07:33:10;;;;;;;1.70;1.10;;;;;;;20.33;53.79;100460.81;1761662;79;21550;-49
2021/05/19 07:35:38;;;;;;;1.20;1.10;;;;;;;20.33;54.03;100467.42;1779460;79;21057;-49
2021/05/19 07:38:08;;;;;;;3.62;0.90;;;;;;;20.32;54.16;100477.61;1779576;79;21032;-50
2021/05/19 07:40:35;;;;;;;2.08;1.10;;;;;;;20.34;54.03;100482.81;1742145;80;21700;-49
2021/05/19 07:43:03;;;;;;;1.47;1.37;;;;;;;20.34;54.11;100480.99;1741533;81;21024;-49
2021/05/19 07:45:32;;;;;;;1.00;1.00;;;;;;;20.35;54.26;100480.06;1750161;80;21095;-50
2021/05/19 07:47:58;;;;;;;1.10;0.90;;;;;;;20.31;54.35;100486.49;1735800;81;21104;-49
2021/05/19 07:50:25;;;;;;;1.85;0.90;;;;;;;20.32;54.21;100486.85;1746133;80;21695;-49
2021/05/19 07:52:53;;;;;;;1.05;1.05;;;;;;;20.30;54.30;100498.00;1734517;81;21163;-48
2021/05/19 07:55:27;;;;;;;2.12;1.00;;;;;;;20.31;54.15;100499.70;1735574;81;21638;-49
2021/05/19 07:57:54;;;;;;;;;;;;;;;20.32;54.19;100511.95;1739327;81;21095;-50
2021/05/19 08:03:01;;;;;;;2.75;1.00;;;;;;;20.31;54.11;100512.92;1729264;81;21101;-49
2021/05/19 08:05:28;;;;;;;1.00;1.00;;;;;;;20.28;54.27;100513.96;1745140;80;21033;-49
2021/05/19 08:07:55;;;;;;;1.45;1.35;;;;;;;20.30;54.39;100523.59;1749038;80;21082;-49
2021/05/19 08:10:22;;;;;;;1.00;0.90;;;;;;;20.30;54.47;100521.78;1748761;81;21033;-49
2021/05/19 08:12:51;;;;;;;3.30;1.15;;;;;;;20.29;54.63;100537.27;1742023;80;21044;-50
2021/05/19 08:15:19;;;;;;;3.35;1.17;;;;;;;20.31;54.39;100539.34;1739708;80;21033;-49
2021/05/19 08:17:46;;;;;;;1.42;1.20;;;;;;;20.33;54.37;100545.84;1738471;81;21590;-49
2021/05/19 08:20:20;;;;;;;2.62;1.10;;;;;;;20.33;53.99;100546.70;1751073;80;21072;-49
2021/05/19 08:22:43;;;;;;;1.22;1.02;;;;;;;20.32;53.79;100546.30;1727420;80;21657;-49
2021/05/19 08:25:11;;;;;;;3.98;1.10;;;;;;;20.30;53.73;100548.20;1745519;80;21579;-49
2021/05/19 08:27:37;;;;;;;1.07;0.98;;;;;;;20.30;53.60;100556.13;1734598;81;21039;-50
2021/05/19 08:30:06;;;;;;;0.80;0.80;;;;;;;20.30;53.71;100550.84;1743771;80;21096;-49
2021/05/19 08:32:32;;;;;;;3.45;0.80;;;;;;;20.31;53.82;100557.84;1710613;80;21606;-50
2021/05/19 08:34:59;;;;;;;1.25;0.95;;;;;;;20.35;53.64;100554.05;1748499;80;21104;-49
2021/05/19 08:37:27;;;;;;;0.93;0.90;;;;;;;20.37;53.52;100554.80;1759171;80;21036;-49
2021/05/19 08:39:55;;;;;;;2.30;1.20;;;;;;;20.42;53.47;100565.93;1795458;79;21028;-49
2021/05/19 08:42:21;;;;;;;1.25;1.00;;;;;;;20.47;53.43;100556.36;1767513;79;21028;-50
2021/05/19 08:44:48;;;;;;;0.95;0.80;;;;;;;20.54;53.38;100567.77;1779635;79;21130;-50
2021/05/19 08:47:23;;;;;;;1.45;1.20;;;;;;;20.59;53.25;100563.01;1781441;79;21050;-49
2021/05/19 08:49:50;;;;;;;1.02;0.90;;;;;;;20.64;53.31;100587.36;1743966;80;21092;-49
2021/05/19 08:52:19;;;;;;;1.30;0.98;;;;;;;20.71;53.12;100570.13;1691657;83;21736;-49
2021/05/19 08:54:49;;;;;;;1.20;0.93;;;;;;;20.79;52.86;100586.33;1676136;84;21044;-49
2021/05/19 08:57:17;;;;;;;2.80;1.32;;;;;;;20.82;52.72;100579.99;1729997;81;21099;-49
2021/05/19 08:59:45;;;;;;;0.70;0.70;;;;;;;20.86;52.59;100586.30;1747999;80;21065;-49
2021/05/19 09:02:13;;;;;;;1.15;0.90;;;;;;;20.89;52.41;100591.41;1739674;80;21064;-50
2021/05/19 09:04:41;;;;;;;0.90;0.88;;;;;;;20.92;52.33;100601.77;1739507;80;21032;-49
2021/05/19 09:07:09;;;;;;;1.02;0.72;;;;;;;20.93;52.38;100598.66;1762715;80;21079;-50
2021/05/19 09:09:38;;;;;;;1.10;0.80;;;;;;;20.98;52.39;100600.03;1742875;80;21044;-49
2021/05/19 09:12:14;;;;;;;1.45;0.98;;;;;;;21.00;52.55;100608.71;1761473;80;21579;-50
2021/05/19 09:15:00;;;;;;;2.05;0.90;;;;;;;21.02;52.43;100609.48;1757792;80;22402;-50
2021/05/19 09:17:35;;;;;;;0.88;0.88;;;;;;;21.01;52.64;100617.50;1721217;81;21092;-49
2021/05/19 09:20:12;;;;;;;2.67;0.93;;;;;;;21.00;52.56;100621.94;1740543;80;21121;-50
2021/05/19 09:22:45;;;;;;;1.10;1.00;;;;;;;21.00;52.65;100616.65;1718892;81;21298;-49
2021/05/19 09:25:27;;;;;;;1.65;0.80;;;;;;;20.98;52.67;100626.48;1665095;84;21207;-50
2021/05/19 09:27:57;;;;;;;;;;;;;;;20.98;52.57;100629.12;1671141;85;21163;-48
2021/05/19 09:30:45;;;;;;;1.15;0.70;;;;;;;20.98;52.62;100630.92;1667340;85;20161;-49
2021/05/19 09:33:24;;;;;;;2.10;0.80;;;;;;;20.97;52.52;100636.70;1564971;90;21184;-50
2021/05/19 09:36:16;;;;;;;2.25;0.82;;;;;;;20.99;52.63;100630.84;1560989;90;21137;-49
2021/05/19 09:38:45;;;;;;;0.72;0.72;;;;;;;21.02;52.30;100643.87;1557425;90;21619;-49
2021/05/19 09:41:23;;;;;;;3.25;1.10;;;;;;;21.04;52.32;100635.37;1563681;91;21607;-49
2021/05/19 09:43:53;;;;;;;2.33;1.00;;;;;;;21.11;52.38;100634.95;1544233;90;21156;-49
2021/05/19 09:49:14;;;;;;;1.37;1.05;;;;;;;21.27;51.74;100646.23;1562404;90;21188;-50
2021/05/19 09:51:44;;;;;;;0.65;0.65;;;;;;;21.33;51.69;100641.84;1575241;89;21141;-48
2021/05/19 09:54:34;;;;;;;1.47;0.95;;;;;;;21.39;51.50;100652.02;1537559;92;21109;-50
2021/05/19 09:57:07;;;;;;;1.10;0.85;;;;;;;21.45;51.47;100651.59;1540054;92;21173;-49
2021/05/19 09:59:34;;;;;;;1.10;0.85;;;;;;;21.48;51.21;100654.02;1531835;92;21133;-50
2021/05/19 10:02:03;;;;;;;1.47;1.10;;;;;;;21.50;51.16;100649.47;1521305;92;21150;-49
2021/05/19 10:04:33;;;;;;;2.35;0.85;;;;;;;21.54;51.13;100654.92;1518177;92;21129;-50
2021/05/19 10:06:58;;;;;;;3.15;0.85;;;;;;;21.60;50.92;100651.84;1528823;92;21089;-49
2021/05/19 10:09:26;;;;;;;1.62;0.88;;;;;;;21.64;50.96;100657.30;1529134;92;21102;-50
2021/05/19 10:11:57;;;;;;;1.05;0.98;;;;;;;21.66;50.72;100659.38;1520270;92;21687;-49
2021/05/19 10:14:23;;;;;;;1.82;0.62;;;;;;;21.71;50.52;100651.97;1515502;93;21696;-49
2021/05/19 10:17:09;;;;;;;1.10;0.95;;;;;;;21.77;51.07;100662.14;1521002;93;21149;-50
2021/05/19 10:19:56;;;;;;;0.70;0.70;;;;;;;21.85;50.75;100651.88;1532460;92;21654;-50
2021/05/19 10:22:23;;;;;;;1.77;0.90;;;;;;;21.95;50.42;100663.53;1583354;88;21145;-49
2021/05/19 10:25:18;;;;;;;0.70;0.70;;;;;;;22.07;50.42;100650.73;1581291;89;21200;-49
2021/05/19 10:27:54;;;;;;;1.17;0.90;;;;;;;22.21;50.46;100661.23;1602453;87;21119;-49
2021/05/19 10:30:46;;;;;;;2.42;1.40;;;;;;;22.37;50.21;100674.23;1678267;83;21130;-49
2021/05/19 10:33:39;;;;;;;1.20;0.95;;;;;;;22.50;49.33;100669.25;1709894;83;21161;-49
2021/05/19 10:36:33;;;;;;;2.35;1.00;;;;;;;22.62;49.50;100672.87;1715911;83;21050;-49
2021/05/19 10:39:18;;;;;;;2.15;1.00;;;;;;;22.73;49.09;100681.37;1652888;86;21130;-50
2021/05/19 10:41:50;;;;;;;0.80;0.80;;;;;;;22.84;48.11;100676.11;1642727;86;21239;-49
2021/05/19 10:44:23;;;;;;;0.72;0.70;;;;;;;22.89;47.60;100677.96;1628232;87;21596;-49
2021/05/19 10:49:56;;;;;;;2.15;0.88;;;;;;;23.05;47.21;100685.14;1561368;90;21211;-49
2021/05/19 10:52:23;;;;;;;0.80;0.80;;;;;;;23.08;47.01;100695.55;1600853;88;21631;-50
2021/05/19 10:57:58;;;;;;;0.75;0.65;;;;;;;23.21;45.89;100697.16;1607168;88;21131;-49
2021/05/19 11:00:30;;;;;;;2.55;1.00;;;;;;;23.24;45.94;100706.71;1610443;88;21636;-50
2021/05/19 11:03:05;;;;;;;0.85;0.65;;;;;;;23.23;45.61;100712.97;1612004;88;21056;-50
2021/05/19 11:05:39;;;;;;;3.60;1.00;;;;;;;23.21;45.30;100699.81;1606293;88;21083;-49
2021/05/19 11:08:13;;;;;;;2.25;0.80;;;;;;;23.13;45.98;100700.88;1606580;89;21135;-49
2021/05/19 11:10:46;;;;;;;0.95;0.70;;;;;;;23.14;46.28;100696.42;1595188;89;21176;-50
2021/05/19 11:13:11;;;;;;;1.35;0.90;;;;;;;23.19;46.45;100704.87;1603397;89;21063;-50
2021/05/19 11:15:54;;;;;;;1.00;0.60;;;;;;;23.26;45.75;100707.45;1607658;88;21481;-50
2021/05/19 11:21:04;;;;;;;1.98;0.60;;;;;;;23.40;44.71;100699.31;1417413;100;21139;-49
2021/05/19 11:23:31;;;;;;;1.22;0.90;;;;;;;23.49;44.22;100695.98;1389991;102;21152;-50
2021/05/19 11:26:15;;;;;;;2.77;0.80;;;;;;;23.58;43.29;100700.56;1386769;102;21165;-50
2021/05/19 11:28:43;;;;;;;2.70;0.90;;;;;;;23.64;43.88;100696.11;1391987;102;21212;-49
2021/05/19 11:31:15;;;;;;;1.32;0.82;;;;;;;23.71;43.98;100705.31;1377042;103;21160;-49
2021/05/19 11:33:57;;;;;;;0.90;0.90;;;;;;;23.74;43.99;100703.73;1399259;102;21174;-49
2021/05/19 11:36:43;;;;;;;0.70;0.70;;;;;;;23.78;44.04;100703.86;1410151;100;21257;-50
2021/05/19 11:39:39;;;;;;;3.08;1.75;;;;;;;23.77;44.28;100712.81;1424068;99;21559;-50
2021/05/19 11:42:28;;;;;;;2.42;0.80;;;;;;;23.72;43.96;100714.97;1411078;99;21760;-50
2021/05/19 11:45:05;;;;;;;6.72;2.67;;;;;;;23.67;43.50;100718.47;1416003;100;21168;-50
2021/05/19 11:47:38;;;;;;;1.98;1.10;;;;;;;23.60;43.46;100720.36;1405631;100;21171;-50
2021/05/19 11:50:23;;;;;;;2.25;1.07;;;;;;;23.52;44.11;100722.28;1399359;101;21151;-50